Cotes De La Manche — FQBE — position and weather

sailwx.info

Track history (hours):
 
Tides and Currents Weather Stations Pressure Air Temp Water Temp Dewpoint Dewpoint Depression Visibility Wind Speed Wind Dir Waves Ship Positions

Cotes De La Manche

Last reported at 2018-May-24 17:30 UTC. Time now 2018-May-24 17:45 UTC.
Position N 47°44' W 003°22'.

Length 25 m; draft 3.7 m.

Type: . MMSI: 227091000.

Date/timePositionNaut miles runAvg speedWind from/ knotsBaromVisibWave heightAir tempDewpointWater temp
2018-May-24 17:30N 47°44' W 003°22'0 0.0
2018-May-24 17:00N 47°44' W 003°22'0 0.0
2018-May-24 16:30N 47°44' W 003°22'0 0.0
2018-May-24 16:00N 47°44' W 003°22'1 2.1
2018-May-24 15:30N 47°43' W 003°22'4 8.7
2018-May-24 15:00N 47°41' W 003°28'4 8.3
2018-May-24 14:30N 47°38' W 003°32'5 9.8
2018-May-24 14:00N 47°33' W 003°31'5 9.8
2018-May-24 13:30N 47°29' W 003°26'0 0.1
2018-May-24 09:00N 47°29' W 003°26'1 2.4
2018-May-24 08:31N 47°28' W 003°26'0 0.1
2018-May-24 08:00N 47°28' W 003°26'1 1.7
2018-May-24 07:30N 47°29' W 003°26'0 0.2
2018-May-24 07:00N 47°29' W 003°26'1 2.2
2018-May-24 06:30N 47°30' W 003°27'0 0.3
2018-May-24 06:00N 47°30' W 003°27'3 5.7
2018-May-24 05:30N 47°29' W 003°23'611.0
2018-May-24 05:00N 47°25' W 003°17'611.1
2018-May-24 04:30N 47°22' W 003°10'1 2.1
2018-May-24 04:00N 47°22' W 003°09'0 0.0
2018-May-24 03:30N 47°22' W 003°09'0 0.0
2018-May-24 03:00N 47°22' W 003°09'0 0.0
2018-May-24 02:30N 47°22' W 003°09'0 0.0
2018-May-24 02:00N 47°22' W 003°09'0 0.1
2018-May-24 01:30N 47°22' W 003°09'0 0.0
2018-May-24 01:00N 47°22' W 003°09'0 0.0
2018-May-24 00:28N 47°22' W 003°09'0 0.0
2018-May-24 00:00N 47°22' W 003°09'0 0.0
2018-May-23 23:28N 47°22' W 003°09'0 0.0
2018-May-23 22:58N 47°22' W 003°09'0 0.0
2018-May-23 22:30N 47°22' W 003°09'0 0.0
2018-May-23 22:00N 47°22' W 003°09'0 0.0
2018-May-23 21:29N 47°22' W 003°09'0 0.0
2018-May-23 21:00N 47°22' W 003°09'0 0.0
2018-May-23 20:30N 47°22' W 003°09'0 0.0
2018-May-23 19:58N 47°22' W 003°09'0 0.0
2018-May-23 19:08N 47°22' W 003°09'0 0.0
2018-May-23 18:45N 47°22' W 003°09'1 4.7
2018-May-23 18:31N 47°22' W 003°10'510.4
2018-May-23 18:00N 47°25' W 003°16'5 9.9
2018-May-23 17:30N 47°27' W 003°23'4 7.2
2018-May-23 17:00N 47°29' W 003°28'2 3.2
2018-May-23 16:30N 47°30' W 003°30'0 0.7
2018-May-23 16:00N 47°30' W 003°30'1 2.3
2018-May-23 15:30N 47°29' W 003°29'0 0.5
2018-May-23 15:00N 47°28' W 003°30'0 0.5
2018-May-23 14:30N 47°28' W 003°29'0 0.2
2018-May-23 14:01N 47°28' W 003°29'0 0.7
2018-May-23 13:30N 47°28' W 003°29'0 0.5
2018-May-23 13:00N 47°29' W 003°30'0 0.5
2018-May-23 12:31N 47°29' W 003°30'1 2.0
2018-May-23 12:00N 47°30' W 003°30'0 0.4
2018-May-23 11:30N 47°30' W 003°30'0 0.3
2018-May-23 11:00N 47°30' W 003°30'1 1.1
2018-May-23 10:30N 47°29' W 003°29'1 1.2
2018-May-23 10:00N 47°29' W 003°28'1 2.9
2018-May-23 09:30N 47°28' W 003°27'0 0.3
2018-May-23 09:00N 47°28' W 003°27'0 0.1
2018-May-23 08:30N 47°28' W 003°27'1 1.3
2018-May-23 08:00N 47°29' W 003°27'0 0.7
2018-May-23 07:30N 47°29' W 003°27'0 1.0
2018-May-23 07:00N 47°29' W 003°28'0 0.6
2018-May-23 06:30N 47°29' W 003°28'0 0.1
2018-May-23 06:00N 47°29' W 003°28'3 6.0
2018-May-23 05:30N 47°27' W 003°25'510.9
2018-May-23 05:00N 47°25' W 003°17'510.5
2018-May-23 04:30N 47°23' W 003°10'2 3.4
2018-May-23 04:00N 47°21' W 003°09'0 0.0
2018-May-23 03:29N 47°21' W 003°09'0 0.0
2018-May-23 03:00N 47°21' W 003°09'0 0.0
2018-May-23 02:30N 47°21' W 003°09'0 0.0
2018-May-23 02:00N 47°21' W 003°09'0 0.0
2018-May-23 01:30N 47°21' W 003°09'0 0.0
2018-May-23 01:00N 47°21' W 003°09'0 0.1
2018-May-23 00:30N 47°21' W 003°09'0 0.0
2018-May-22 23:59N 47°21' W 003°09'0 0.1
2018-May-22 23:30N 47°21' W 003°09'0 0.0
2018-May-22 22:59N 47°21' W 003°09'0 0.0
2018-May-22 22:23N 47°21' W 003°09'0 0.0
2018-May-22 21:58N 47°21' W 003°09'0 0.0
2018-May-22 21:24N 47°21' W 003°09'0 0.0
2018-May-22 20:59N 47°21' W 003°09'0 0.0
2018-May-22 20:30N 47°21' W 003°09'0 0.0
2018-May-22 20:00N 47°21' W 003°09'0 0.0
2018-May-22 19:30N 47°21' W 003°09'0 0.0
2018-May-22 19:00N 47°21' W 003°09'3 6.6
2018-May-22 18:30N 47°23' W 003°12'510.3
2018-May-22 18:00N 47°26' W 003°19'5 9.9
2018-May-22 17:30N 47°29' W 003°25'2 4.6
2018-May-22 17:00N 47°30' W 003°28'1 1.5
2018-May-22 16:30N 47°31' W 003°28'0 0.1
2018-May-22 16:00N 47°31' W 003°28'1 1.2
2018-May-22 15:30N 47°30' W 003°29'1 2.6
2018-May-22 15:00N 47°30' W 003°27'0 0.9
2018-May-22 14:31N 47°30' W 003°28'0 0.9
2018-May-22 14:00N 47°30' W 003°28'0 0.8
2018-May-22 13:31N 47°30' W 003°29'0 0.2
2018-May-22 13:01N 47°30' W 003°29'1 1.4
2018-May-22 12:31N 47°31' W 003°28'0 0.4
2018-May-22 12:00N 47°31' W 003°28'1 2.0
2018-May-22 11:31N 47°32' W 003°28'1 2.2
2018-May-22 11:00N 47°31' W 003°29'0 0.1
2018-May-22 10:30N 47°31' W 003°29'1 1.7
2018-May-22 10:00N 47°32' W 003°28'1 1.2
2018-May-22 09:30N 47°31' W 003°27'0 0.1
2018-May-22 09:00N 47°31' W 003°27'0 0.2
2018-May-22 08:30N 47°31' W 003°28'1 2.0
2018-May-22 08:00N 47°31' W 003°29'0 0.4
2018-May-22 07:30N 47°31' W 003°29'1 1.5
2018-May-22 07:00N 47°32' W 003°28'0 0.1
2018-May-22 06:30N 47°32' W 003°28'0 0.1
2018-May-22 06:00N 47°32' W 003°28'2 3.5
2018-May-22 05:30N 47°33' W 003°29'510.2
2018-May-22 05:00N 47°38' W 003°32'4 7.9
2018-May-22 04:30N 47°40' W 003°27'5 9.1
2018-May-22 04:00N 47°43' W 003°22'0 0.3
2018-May-22 03:30N 47°44' W 003°22'0 0.0
2018-May-22 03:00N 47°44' W 003°22'0 0.0
2018-May-22 02:30N 47°44' W 003°22'0 0.0
2018-May-22 02:00N 47°44' W 003°22'0 0.0
2018-May-22 01:30N 47°44' W 003°22'0 0.0
2018-May-22 01:00N 47°44' W 003°22'0 0.0
2018-May-22 00:30N 47°44' W 003°22'0 0.0
2018-May-22 00:00N 47°44' W 003°22'0 0.0
2018-May-21 23:30N 47°44' W 003°22'0 0.0
2018-May-21 23:00N 47°44' W 003°22'0 0.0
2018-May-21 22:30N 47°44' W 003°22'0 0.0
2018-May-21 22:00N 47°44' W 003°22'0 0.0
2018-May-21 21:30N 47°44' W 003°22'0 0.0
2018-May-21 21:00N 47°44' W 003°22'0 0.0
2018-May-21 20:30N 47°44' W 003°22'0 0.0
2018-May-21 20:00N 47°44' W 003°22'0 0.0
2018-May-21 19:30N 47°44' W 003°22'0 0.0
2018-May-21 19:00N 47°44' W 003°22'0 0.0
2018-May-21 18:30N 47°44' W 003°22'0 0.0
2018-May-21 18:00N 47°44' W 003°22'0 0.0
2018-May-21 17:30N 47°44' W 003°22'0 0.0
2018-May-21 17:00N 47°44' W 003°22'0 0.0
2018-May-21 16:30N 47°44' W 003°22'0 0.0
2018-May-21 16:00N 47°44' W 003°22'0 0.0
2018-May-21 15:30N 47°44' W 003°22'0 0.0
2018-May-21 15:00N 47°44' W 003°22'0 0.0
2018-May-21 14:30N 47°44' W 003°22'0 0.0
2018-May-21 14:00N 47°44' W 003°22'0 0.0
2018-May-21 13:30N 47°44' W 003°22'0 0.0
2018-May-21 13:00N 47°44' W 003°22'0 0.0
2018-May-21 12:30N 47°44' W 003°22'0 0.0
2018-May-21 12:00N 47°44' W 003°22'0 0.0
2018-May-21 11:30N 47°44' W 003°22'0 0.0
2018-May-21 11:00N 47°44' W 003°22'0 0.0
2018-May-21 10:30N 47°44' W 003°22'0 0.0
2018-May-21 10:00N 47°44' W 003°22'0 0.0
2018-May-21 09:30N 47°44' W 003°22'0 0.0
2018-May-21 09:00N 47°44' W 003°22'0 0.0
2018-May-21 08:30N 47°44' W 003°22'0 0.0
2018-May-21 08:00N 47°44' W 003°22'0 0.0
2018-May-21 07:30N 47°44' W 003°22'0 0.0
2018-May-21 07:00N 47°44' W 003°22'0 0.0
2018-May-21 06:30N 47°44' W 003°22'0 0.0
2018-May-21 06:00N 47°44' W 003°22'0 0.0
2018-May-21 05:30N 47°44' W 003°22'0 0.0
2018-May-21 05:00N 47°44' W 003°22'0 0.0
2018-May-21 04:30N 47°44' W 003°22'0 0.0
2018-May-21 04:00N 47°44' W 003°22'0 0.0
2018-May-21 03:30N 47°44' W 003°22'0 0.0
2018-May-21 03:00N 47°44' W 003°22'0 0.0
2018-May-21 02:30N 47°44' W 003°22'0 0.0
2018-May-21 02:00N 47°44' W 003°22'0 0.0
2018-May-21 01:30N 47°44' W 003°22'0 0.0
2018-May-21 01:00N 47°44' W 003°22'0 0.0
2018-May-21 00:30N 47°44' W 003°22'0 0.0
2018-May-21 00:00N 47°44' W 003°22'0 0.0
2018-May-20 23:30N 47°44' W 003°22'0 0.0
2018-May-20 23:00N 47°44' W 003°22'0 0.0
2018-May-20 22:30N 47°44' W 003°22'0 0.0
2018-May-20 22:00N 47°44' W 003°22'0 0.0
2018-May-20 21:30N 47°44' W 003°22'0 0.0
2018-May-20 21:00N 47°44' W 003°22'0 0.0
2018-May-20 20:30N 47°44' W 003°22'0 0.0
2018-May-20 20:00N 47°44' W 003°22'0 0.0
2018-May-20 19:30N 47°44' W 003°22'0 0.0
2018-May-20 19:00N 47°44' W 003°22'0 0.0
2018-May-20 18:30N 47°44' W 003°22'0 0.0
2018-May-20 18:00N 47°44' W 003°22'0 0.0
2018-May-20 17:30N 47°44' W 003°22'0 0.0
2018-May-20 17:00N 47°44' W 003°22'0 0.0
2018-May-20 16:30N 47°44' W 003°22'0 0.1
2018-May-20 16:00N 47°44' W 003°22'4 8.2
2018-May-20 15:30N 47°40' W 003°26'5 9.1
2018-May-20 15:00N 47°39' W 003°32'510.3
2018-May-20 14:30N 47°34' W 003°29'3 5.3
2018-May-20 14:00N 47°32' W 003°27'2 3.8
2018-May-20 13:31N 47°30' W 003°26'1 1.1
2018-May-20 13:01N 47°30' W 003°26'1 1.7
2018-May-20 12:30N 47°29' W 003°27'0 0.4
2018-May-20 12:00N 47°29' W 003°27'0 0.3
2018-May-20 11:30N 47°29' W 003°27'0 0.8
2018-May-20 11:00N 47°29' W 003°27'0 0.5
2018-May-20 10:30N 47°29' W 003°26'0 0.6
2018-May-20 10:00N 47°29' W 003°26'1 1.1
2018-May-20 09:30N 47°28' W 003°26'1 1.1
2018-May-20 09:00N 47°28' W 003°26'2 3.1
2018-May-20 08:30N 47°28' W 003°28'0 0.7
2018-May-20 08:01N 47°28' W 003°28'1 1.6
2018-May-20 07:30N 47°29' W 003°28'0 0.8
2018-May-20 07:00N 47°29' W 003°28'1 2.0
2018-May-20 06:31N 47°30' W 003°28'1 1.3
2018-May-20 06:00N 47°29' W 003°28'0 0.4
2018-May-20 05:30N 47°30' W 003°28'0 0.1
2018-May-20 05:01N 47°30' W 003°28'0 0.2
2018-May-20 04:30N 47°30' W 003°28'0 0.2
2018-May-20 04:00N 47°30' W 003°28'0 0.9
2018-May-20 03:30N 47°30' W 003°28'3 7.0
2018-May-20 03:00N 47°30' W 003°33'0 0.7
2018-May-20 02:30N 47°31' W 003°34'1 2.2
2018-May-20 02:00N 47°32' W 003°33'1 2.2
2018-May-20 01:30N 47°32' W 003°32'1 1.0
2018-May-20 00:58N 47°32' W 003°33'1 2.0
2018-May-20 00:28N 47°32' W 003°34'1 2.0
2018-May-19 23:58N 47°32' W 003°36'1 2.1
2018-May-19 23:30N 47°31' W 003°35'1 2.1
2018-May-19 23:00N 47°30' W 003°34'1 2.5
2018-May-19 22:30N 47°30' W 003°32'1 2.7
2018-May-19 22:00N 47°30' W 003°30'1 2.6
2018-May-19 21:30N 47°30' W 003°29'1 2.9
2018-May-19 21:00N 47°30' W 003°26'2 4.2
2018-May-19 20:30N 47°29' W 003°23'2 4.2
2018-May-19 20:00N 47°29' W 003°20'0 0.9
2018-May-19 19:31N 47°29' W 003°20'2 3.6
2018-May-19 19:01N 47°28' W 003°22'1 2.3
2018-May-19 18:30N 47°29' W 003°21'1 1.6
2018-May-19 18:00N 47°29' W 003°20'0 0.7
2018-May-19 17:30N 47°29' W 003°20'2 4.8
2018-May-19 17:00N 47°28' W 003°23'4 8.9
2018-May-19 16:30N 47°26' W 003°28'0 0.3
2018-May-19 16:01N 47°26' W 003°28'1 2.8
2018-May-19 15:30N 47°27' W 003°27'0 0.6
2018-May-19 15:00N 47°27' W 003°27'1 1.7
2018-May-19 14:30N 47°27' W 003°28'1 1.8
2018-May-19 14:00N 47°28' W 003°29'1 1.2
2018-May-19 13:31N 47°28' W 003°30'1 1.3
2018-May-19 13:00N 47°28' W 003°30'0 0.2
2018-May-19 12:30N 47°28' W 003°30'0 0.2
2018-May-19 12:00N 47°28' W 003°30'0 0.3
2018-May-19 11:30N 47°28' W 003°30'0 0.4
2018-May-19 11:00N 47°28' W 003°29'0 0.4
2018-May-19 10:30N 47°28' W 003°29'1 1.0
2018-May-19 10:00N 47°28' W 003°30'1 1.6
2018-May-19 09:30N 47°29' W 003°29'1 2.9
2018-May-19 09:00N 47°30' W 003°28'2 3.4
2018-May-19 08:30N 47°32' W 003°28'1 2.1
2018-May-19 08:00N 47°31' W 003°29'1 2.2
2018-May-19 07:30N 47°30' W 003°29'1 1.1
2018-May-19 07:00N 47°30' W 003°30'0 1.0
2018-May-19 06:30N 47°30' W 003°31'2 3.1
2018-May-19 06:00N 47°29' W 003°28'5 9.9
2018-May-19 05:30N 47°27' W 003°22'5 9.9
2018-May-19 05:00N 47°24' W 003°15'510.0
2018-May-19 04:30N 47°22' W 003°09'1 1.4
2018-May-19 04:00N 47°21' W 003°09'0 0.0
2018-May-19 03:30N 47°21' W 003°09'0 0.0
2018-May-19 01:26N 47°21' W 003°09'0 0.0
2018-May-19 00:55N 47°21' W 003°09'0 0.0
2018-May-19 00:30N 47°21' W 003°09'0 0.0
2018-May-18 23:58N 47°21' W 003°09'0 0.1
2018-May-18 23:30N 47°21' W 003°09'0 0.0
2018-May-18 22:46N 47°21' W 003°09'0 0.0
2018-May-18 22:30N 47°21' W 003°09'0 0.0
2018-May-18 22:00N 47°21' W 003°09'0 0.0
2018-May-18 21:29N 47°21' W 003°09'0 0.0
2018-May-18 20:46N 47°21' W 003°09'0 0.0
2018-May-18 20:30N 47°21' W 003°09'0 0.0
2018-May-18 20:00N 47°21' W 003°09'0 0.0
2018-May-18 19:30N 47°21' W 003°09'0 0.0
2018-May-18 19:00N 47°21' W 003°09'0 0.0
2018-May-18 18:30N 47°21' W 003°09'0 0.0
2018-May-18 18:00N 47°21' W 003°09'0 0.0
2018-May-18 17:30N 47°21' W 003°09'0 0.0
2018-May-18 17:00N 47°21' W 003°09'0 0.0
2018-May-18 16:30N 47°21' W 003°09'0 0.0
2018-May-18 16:00N 47°21' W 003°09'0 0.0
2018-May-18 15:30N 47°21' W 003°09'0 0.0
2018-May-18 15:00N 47°21' W 003°09'0 0.0
2018-May-18 14:30N 47°21' W 003°09'4 7.2
2018-May-18 14:00N 47°24' W 003°12'4 8.4
2018-May-18 13:30N 47°24' W 003°18'2 4.4
2018-May-18 13:01N 47°22' W 003°18'1 1.0
2018-May-18 12:30N 47°21' W 003°18'2 4.0
2018-May-18 12:00N 47°19' W 003°17'2 4.0
2018-May-18 11:29N 47°17' W 003°16'1 1.5
2018-May-18 11:00N 47°18' W 003°16'1 1.4
2018-May-18 10:30N 47°19' W 003°16'1 1.6
2018-May-18 10:00N 47°20' W 003°17'3 4.7
2018-May-18 09:28N 47°22' W 003°18'3 5.4
2018-May-18 09:00N 47°24' W 003°19'2 4.2
2018-May-18 08:30N 47°26' W 003°21'3 5.9
2018-May-18 08:00N 47°27' W 003°25'3 5.9
2018-May-18 07:30N 47°28' W 003°29'0 1.0
2018-May-18 07:00N 47°28' W 003°28'1 2.0
2018-May-18 06:30N 47°28' W 003°27'0 0.8
2018-May-18 06:00N 47°28' W 003°26'2 4.4
2018-May-18 05:30N 47°27' W 003°24'510.1
2018-May-18 05:00N 47°25' W 003°17'610.5
2018-May-18 04:28N 47°22' W 003°10'1 1.9
2018-May-18 03:58N 47°21' W 003°09'0 0.0
2018-May-18 03:30N 47°21' W 003°09'0 0.0
2018-May-18 03:00N 47°21' W 003°09'0 0.0
2018-May-18 02:29N 47°21' W 003°09'0 0.0
2018-May-18 02:00N 47°21' W 003°09'0 0.0
2018-May-18 01:30N 47°21' W 003°09'0 0.0
2018-May-18 01:00N 47°21' W 003°09'0 0.0
2018-May-18 00:30N 47°21' W 003°09'0 0.0
2018-May-18 00:00N 47°21' W 003°09'0 0.0
2018-May-17 23:27N 47°21' W 003°09'0 0.1
2018-May-17 23:00N 47°21' W 003°09'0 0.1
2018-May-17 22:30N 47°21' W 003°09'0 0.0
2018-May-17 22:00N 47°21' W 003°09'0 0.0
2018-May-17 21:30N 47°21' W 003°09'0 0.0
2018-May-17 21:00N 47°21' W 003°09'0 0.0
2018-May-17 20:30N 47°21' W 003°09'0 0.0
2018-May-17 20:00N 47°21' W 003°09'0 0.0
2018-May-17 19:30N 47°21' W 003°09'0 0.0
2018-May-17 19:00N 47°21' W 003°09'0 0.0
2018-May-17 18:30N 47°21' W 003°09'0 0.3
2018-May-17 18:01N 47°22' W 003°09'5 9.2
2018-May-17 17:30N 47°24' W 003°14'510.5
2018-May-17 17:00N 47°26' W 003°22'4 8.7
2018-May-17 16:30N 47°28' W 003°28'0 0.6
2018-May-17 16:00N 47°28' W 003°27'2 4.3
2018-May-17 15:30N 47°30' W 003°27'0 0.7
2018-May-17 15:00N 47°30' W 003°26'1 1.8
2018-May-17 14:31N 47°31' W 003°26'1 1.2
2018-May-17 14:01N 47°31' W 003°26'0 0.7
2018-May-17 13:30N 47°31' W 003°27'1 1.8
2018-May-17 13:00N 47°32' W 003°27'2 3.5
2018-May-17 12:30N 47°31' W 003°29'0 0.7
2018-May-17 12:00N 47°31' W 003°30'0 0.3
2018-May-17 11:30N 47°31' W 003°30'0 0.4
2018-May-17 11:00N 47°31' W 003°30'1 1.9
2018-May-17 10:30N 47°31' W 003°29'0 0.9
2018-May-17 10:00N 47°30' W 003°30'1 2.4
2018-May-17 09:30N 47°31' W 003°28'0 1.0
2018-May-17 09:00N 47°30' W 003°29'1 1.3
2018-May-17 08:30N 47°31' W 003°28'0 0.2
2018-May-17 08:00N 47°31' W 003°28'1 1.1
2018-May-17 07:30N 47°31' W 003°29'1 2.2
2018-May-17 07:00N 47°31' W 003°27'0 0.5
2018-May-17 06:30N 47°31' W 003°28'0 1.0
2018-May-17 06:00N 47°31' W 003°27'1 2.1
2018-May-17 05:30N 47°32' W 003°29'1 2.8
2018-May-17 05:00N 47°30' W 003°29'1 1.5
2018-May-17 04:30N 47°31' W 003°29'0 0.5
2018-May-17 04:00N 47°31' W 003°28'1 1.8
2018-May-17 03:30N 47°31' W 003°30'1 2.3
2018-May-17 03:00N 47°31' W 003°31'1 2.5
2018-May-17 02:30N 47°31' W 003°33'1 1.4
2018-May-17 02:00N 47°31' W 003°34'1 2.6
2018-May-17 01:30N 47°31' W 003°32'2 3.2
2018-May-17 01:00N 47°31' W 003°30'1 2.2
2018-May-17 00:30N 47°31' W 003°32'1 2.5
2018-May-17 00:00N 47°31' W 003°33'0 0.9
2018-May-16 23:30N 47°31' W 003°34'2 3.6
2018-May-16 23:00N 47°31' W 003°32'2 3.6
2018-May-16 22:30N 47°31' W 003°29'1 2.8
2018-May-16 22:00N 47°31' W 003°31'3 5.2
2018-May-16 21:30N 47°32' W 003°35'33 9.3
2018-May-16 17:58N 47°42' W 004°21'2110.7
2018-May-16 16:02N 47°58' W 004°41'110.5
2018-May-16 15:58N 47°58' W 004°41'510.3
2018-May-16 15:30N 48°02' W 004°46'4 8.2
2018-May-16 15:00N 48°06' W 004°46'5 9.9
2018-May-16 14:30N 48°11' W 004°46'5 9.8
2018-May-16 14:00N 48°16' W 004°45'4 8.9
2018-May-16 13:30N 48°18' W 004°39'4 8.2
2018-May-16 13:00N 48°20' W 004°34'4 7.1
2018-May-16 12:30N 48°22' W 004°29'1 1.8
2018-May-16 12:00N 48°23' W 004°29'0 0.0
2018-May-16 11:30N 48°23' W 004°29'0 0.0
2018-May-16 11:00N 48°23' W 004°29'0 0.0
2018-May-16 10:30N 48°23' W 004°29'0 0.0
2018-May-16 10:00N 48°23' W 004°29'0 0.0
2018-May-16 09:30N 48°23' W 004°29'0 0.0
2018-May-16 09:00N 48°23' W 004°29'0 0.1
2018-May-16 08:30N 48°23' W 004°29'0 0.0
2018-May-16 08:00N 48°23' W 004°29'0 0.2
2018-May-16 07:30N 48°23' W 004°29'0 0.0
2018-May-16 07:00N 48°23' W 004°29'0 0.0
2018-May-16 06:30N 48°23' W 004°29'0 0.0
2018-May-16 06:00N 48°23' W 004°29'0 0.0
2018-May-16 05:30N 48°23' W 004°29'0 0.0
2018-May-16 05:00N 48°23' W 004°29'0 0.0
2018-May-16 04:30N 48°23' W 004°29'0 0.0
2018-May-16 04:00N 48°23' W 004°29'0 0.0
2018-May-16 03:30N 48°23' W 004°29'0 0.0
2018-May-16 03:00N 48°23' W 004°29'0 0.0
2018-May-16 02:30N 48°23' W 004°29'0 0.0
2018-May-16 02:00N 48°23' W 004°29'0 0.0
2018-May-16 01:30N 48°23' W 004°29'0 0.0
2018-May-16 01:00N 48°23' W 004°29'0 0.0
2018-May-16 00:30N 48°23' W 004°29'0 0.0
2018-May-16 00:00N 48°23' W 004°29'0 0.0
2018-May-15 23:30N 48°23' W 004°29'0 0.0
2018-May-15 23:00N 48°23' W 004°29'0 0.0
2018-May-15 22:30N 48°23' W 004°29'0 0.0
2018-May-15 22:00N 48°23' W 004°29'0 0.0
2018-May-15 21:30N 48°23' W 004°29'0 0.0
2018-May-15 21:00N 48°23' W 004°29'0 0.0
2018-May-15 20:30N 48°23' W 004°29'0 0.0
2018-May-15 20:00N 48°23' W 004°29'0 0.0
2018-May-15 19:30N 48°23' W 004°29'0 0.0
2018-May-15 19:00N 48°23' W 004°29'0 0.0
2018-May-15 18:30N 48°23' W 004°29'0 0.0
2018-May-15 18:00N 48°23' W 004°29'0 0.0
2018-May-15 17:30N 48°23' W 004°29'0 0.0
2018-May-15 17:00N 48°23' W 004°29'0 0.0
2018-May-15 16:30N 48°23' W 004°29'0 0.0
2018-May-15 16:00N 48°23' W 004°29'0 0.0
2018-May-15 15:30N 48°23' W 004°29'0 0.0
2018-May-15 15:00N 48°23' W 004°29'0 0.0
2018-May-15 14:30N 48°23' W 004°29'0 0.0
2018-May-15 14:00N 48°23' W 004°29'0 0.0
2018-May-15 13:30N 48°23' W 004°29'0 0.0
2018-May-15 13:00N 48°23' W 004°29'0 0.0
2018-May-15 12:30N 48°23' W 004°29'0 0.0
2018-May-15 12:00N 48°23' W 004°29'0 0.0
2018-May-15 11:30N 48°23' W 004°29'0 0.0
2018-May-15 11:00N 48°23' W 004°29'0 0.0
2018-May-15 10:30N 48°23' W 004°29'0 0.0
2018-May-15 10:00N 48°23' W 004°29'0 0.0
2018-May-15 09:30N 48°23' W 004°29'0 0.0
2018-May-15 09:00N 48°23' W 004°29'0 0.0
2018-May-15 08:30N 48°23' W 004°29'0 0.0
2018-May-15 08:00N 48°23' W 004°29'0 0.0
2018-May-15 07:30N 48°23' W 004°29'0 0.0
2018-May-15 07:00N 48°23' W 004°29'0 0.0
2018-May-15 06:30N 48°23' W 004°29'0 0.0
2018-May-15 06:00N 48°23' W 004°29'0 0.0
2018-May-15 05:30N 48°23' W 004°29'0 0.0
2018-May-15 05:00N 48°23' W 004°29'0 0.0
2018-May-15 04:30N 48°23' W 004°29'0 0.0
2018-May-15 04:00N 48°23' W 004°29'0 0.0
2018-May-15 03:30N 48°23' W 004°29'0 0.0
2018-May-15 03:00N 48°23' W 004°29'0 0.0
2018-May-15 02:30N 48°23' W 004°29'0 0.0
2018-May-15 02:00N 48°23' W 004°29'0 0.0
2018-May-15 01:30N 48°23' W 004°29'0 0.0
2018-May-15 01:00N 48°23' W 004°29'0 0.0
2018-May-15 00:30N 48°23' W 004°29'0 0.0
2018-May-15 00:00N 48°23' W 004°29'0 0.0
2018-May-14 23:30N 48°23' W 004°29'0 0.0
2018-May-14 23:00N 48°23' W 004°29'0 0.0
2018-May-14 22:30N 48°23' W 004°29'0 0.0
2018-May-14 22:00N 48°23' W 004°29'0 0.0
2018-May-14 21:30N 48°23' W 004°29'0 0.0
2018-May-14 21:00N 48°23' W 004°29'0 0.0
2018-May-14 20:30N 48°23' W 004°29'0 0.0
2018-May-14 20:00N 48°23' W 004°29'0 0.0
2018-May-14 19:30N 48°23' W 004°29'0 0.0
2018-May-14 19:00N 48°23' W 004°29'0 0.0
2018-May-14 18:30N 48°23' W 004°29'0 0.0
2018-May-14 18:00N 48°23' W 004°29'  
Track history (hours):
 
Tides and Currents Weather Stations Pressure Air Temp Water Temp Dewpoint Dewpoint Depression Visibility Wind Speed Wind Dir Waves Ship Positions

Cotes De La Manche

Last reported at 2018-May-24 17:30 UTC. Time now 2018-May-24 17:45 UTC.
Position N 47°44' W 003°22'.

Length 25 m; draft 3.7 m.

Type: . MMSI: 227091000.

Date/timePositionNaut miles runAvg speedWind from/ knotsBaromVisibWave heightAir tempDewpointWater temp
2018-May-24 17:30N 47°44' W 003°22'0 0.0
2018-May-24 17:00N 47°44' W 003°22'0 0.0
2018-May-24 16:30N 47°44' W 003°22'0 0.0
2018-May-24 16:00N 47°44' W 003°22'1 2.1
2018-May-24 15:30N 47°43' W 003°22'4 8.7
2018-May-24 15:00N 47°41' W 003°28'4 8.3
2018-May-24 14:30N 47°38' W 003°32'5 9.8
2018-May-24 14:00N 47°33' W 003°31'5 9.8
2018-May-24 13:30N 47°29' W 003°26'0 0.1
2018-May-24 09:00N 47°29' W 003°26'1 2.4
2018-May-24 08:31N 47°28' W 003°26'0 0.1
2018-May-24 08:00N 47°28' W 003°26'1 1.7
2018-May-24 07:30N 47°29' W 003°26'0 0.2
2018-May-24 07:00N 47°29' W 003°26'1 2.2
2018-May-24 06:30N 47°30' W 003°27'0 0.3
2018-May-24 06:00N 47°30' W 003°27'3 5.7
2018-May-24 05:30N 47°29' W 003°23'611.0
2018-May-24 05:00N 47°25' W 003°17'611.1
2018-May-24 04:30N 47°22' W 003°10'1 2.1
2018-May-24 04:00N 47°22' W 003°09'0 0.0
2018-May-24 03:30N 47°22' W 003°09'0 0.0
2018-May-24 03:00N 47°22' W 003°09'0 0.0
2018-May-24 02:30N 47°22' W 003°09'0 0.0
2018-May-24 02:00N 47°22' W 003°09'0 0.1
2018-May-24 01:30N 47°22' W 003°09'0 0.0
2018-May-24 01:00N 47°22' W 003°09'0 0.0
2018-May-24 00:28N 47°22' W 003°09'0 0.0
2018-May-24 00:00N 47°22' W 003°09'0 0.0
2018-May-23 23:28N 47°22' W 003°09'0 0.0
2018-May-23 22:58N 47°22' W 003°09'0 0.0
2018-May-23 22:30N 47°22' W 003°09'0 0.0
2018-May-23 22:00N 47°22' W 003°09'0 0.0
2018-May-23 21:29N 47°22' W 003°09'0 0.0
2018-May-23 21:00N 47°22' W 003°09'0 0.0
2018-May-23 20:30N 47°22' W 003°09'0 0.0
2018-May-23 19:58N 47°22' W 003°09'0 0.0
2018-May-23 19:08N 47°22' W 003°09'0 0.0
2018-May-23 18:45N 47°22' W 003°09'1 4.7
2018-May-23 18:31N 47°22' W 003°10'510.4
2018-May-23 18:00N 47°25' W 003°16'5 9.9
2018-May-23 17:30N 47°27' W 003°23'4 7.2
2018-May-23 17:00N 47°29' W 003°28'2 3.2
2018-May-23 16:30N 47°30' W 003°30'0 0.7
2018-May-23 16:00N 47°30' W 003°30'1 2.3
2018-May-23 15:30N 47°29' W 003°29'0 0.5
2018-May-23 15:00N 47°28' W 003°30'0 0.5
2018-May-23 14:30N 47°28' W 003°29'0 0.2
2018-May-23 14:01N 47°28' W 003°29'0 0.7
2018-May-23 13:30N 47°28' W 003°29'0 0.5
2018-May-23 13:00N 47°29' W 003°30'0 0.5
2018-May-23 12:31N 47°29' W 003°30'1 2.0
2018-May-23 12:00N 47°30' W 003°30'0 0.4
2018-May-23 11:30N 47°30' W 003°30'0 0.3
2018-May-23 11:00N 47°30' W 003°30'1 1.1
2018-May-23 10:30N 47°29' W 003°29'1 1.2
2018-May-23 10:00N 47°29' W 003°28'1 2.9
2018-May-23 09:30N 47°28' W 003°27'0 0.3
2018-May-23 09:00N 47°28' W 003°27'0 0.1
2018-May-23 08:30N 47°28' W 003°27'1 1.3
2018-May-23 08:00N 47°29' W 003°27'0 0.7
2018-May-23 07:30N 47°29' W 003°27'0 1.0
2018-May-23 07:00N 47°29' W 003°28'0 0.6
2018-May-23 06:30N 47°29' W 003°28'0 0.1
2018-May-23 06:00N 47°29' W 003°28'3 6.0
2018-May-23 05:30N 47°27' W 003°25'510.9
2018-May-23 05:00N 47°25' W 003°17'510.5
2018-May-23 04:30N 47°23' W 003°10'2 3.4
2018-May-23 04:00N 47°21' W 003°09'0 0.0
2018-May-23 03:29N 47°21' W 003°09'0 0.0
2018-May-23 03:00N 47°21' W 003°09'0 0.0
2018-May-23 02:30N 47°21' W 003°09'0 0.0
2018-May-23 02:00N 47°21' W 003°09'0 0.0
2018-May-23 01:30N 47°21' W 003°09'0 0.0
2018-May-23 01:00N 47°21' W 003°09'0 0.1
2018-May-23 00:30N 47°21' W 003°09'0 0.0
2018-May-22 23:59N 47°21' W 003°09'0 0.1
2018-May-22 23:30N 47°21' W 003°09'0 0.0
2018-May-22 22:59N 47°21' W 003°09'0 0.0
2018-May-22 22:23N 47°21' W 003°09'0 0.0
2018-May-22 21:58N 47°21' W 003°09'0 0.0
2018-May-22 21:24N 47°21' W 003°09'0 0.0
2018-May-22 20:59N 47°21' W 003°09'0 0.0
2018-May-22 20:30N 47°21' W 003°09'0 0.0
2018-May-22 20:00N 47°21' W 003°09'0 0.0
2018-May-22 19:30N 47°21' W 003°09'0 0.0
2018-May-22 19:00N 47°21' W 003°09'3 6.6
2018-May-22 18:30N 47°23' W 003°12'510.3
2018-May-22 18:00N 47°26' W 003°19'5 9.9
2018-May-22 17:30N 47°29' W 003°25'2 4.6
2018-May-22 17:00N 47°30' W 003°28'1 1.5
2018-May-22 16:30N 47°31' W 003°28'0 0.1
2018-May-22 16:00N 47°31' W 003°28'1 1.2
2018-May-22 15:30N 47°30' W 003°29'1 2.6
2018-May-22 15:00N 47°30' W 003°27'0 0.9
2018-May-22 14:31N 47°30' W 003°28'0 0.9
2018-May-22 14:00N 47°30' W 003°28'0 0.8
2018-May-22 13:31N 47°30' W 003°29'0 0.2
2018-May-22 13:01N 47°30' W 003°29'1 1.4
2018-May-22 12:31N 47°31' W 003°28'0 0.4
2018-May-22 12:00N 47°31' W 003°28'1 2.0
2018-May-22 11:31N 47°32' W 003°28'1 2.2
2018-May-22 11:00N 47°31' W 003°29'0 0.1
2018-May-22 10:30N 47°31' W 003°29'1 1.7
2018-May-22 10:00N 47°32' W 003°28'1 1.2
2018-May-22 09:30N 47°31' W 003°27'0 0.1
2018-May-22 09:00N 47°31' W 003°27'0 0.2
2018-May-22 08:30N 47°31' W 003°28'1 2.0
2018-May-22 08:00N 47°31' W 003°29'0 0.4
2018-May-22 07:30N 47°31' W 003°29'1 1.5
2018-May-22 07:00N 47°32' W 003°28'0 0.1
2018-May-22 06:30N 47°32' W 003°28'0 0.1
2018-May-22 06:00N 47°32' W 003°28'2 3.5
2018-May-22 05:30N 47°33' W 003°29'510.2
2018-May-22 05:00N 47°38' W 003°32'4 7.9
2018-May-22 04:30N 47°40' W 003°27'5 9.1
2018-May-22 04:00N 47°43' W 003°22'0 0.3
2018-May-22 03:30N 47°44' W 003°22'0 0.0
2018-May-22 03:00N 47°44' W 003°22'0 0.0
2018-May-22 02:30N 47°44' W 003°22'0 0.0
2018-May-22 02:00N 47°44' W 003°22'0 0.0
2018-May-22 01:30N 47°44' W 003°22'0 0.0
2018-May-22 01:00N 47°44' W 003°22'0 0.0
2018-May-22 00:30N 47°44' W 003°22'0 0.0
2018-May-22 00:00N 47°44' W 003°22'0 0.0
2018-May-21 23:30N 47°44' W 003°22'0 0.0
2018-May-21 23:00N 47°44' W 003°22'0 0.0
2018-May-21 22:30N 47°44' W 003°22'0 0.0
2018-May-21 22:00N 47°44' W 003°22'0 0.0
2018-May-21 21:30N 47°44' W 003°22'0 0.0
2018-May-21 21:00N 47°44' W 003°22'0 0.0
2018-May-21 20:30N 47°44' W 003°22'0 0.0
2018-May-21 20:00N 47°44' W 003°22'0 0.0
2018-May-21 19:30N 47°44' W 003°22'0 0.0
2018-May-21 19:00N 47°44' W 003°22'0 0.0
2018-May-21 18:30N 47°44' W 003°22'0 0.0
2018-May-21 18:00N 47°44' W 003°22'0 0.0
2018-May-21 17:30N 47°44' W 003°22'0 0.0
2018-May-21 17:00N 47°44' W 003°22'0 0.0
2018-May-21 16:30N 47°44' W 003°22'0 0.0
2018-May-21 16:00N 47°44' W 003°22'0 0.0
2018-May-21 15:30N 47°44' W 003°22'0 0.0
2018-May-21 15:00N 47°44' W 003°22'0 0.0
2018-May-21 14:30N 47°44' W 003°22'0 0.0
2018-May-21 14:00N 47°44' W 003°22'0 0.0
2018-May-21 13:30N 47°44' W 003°22'0 0.0
2018-May-21 13:00N 47°44' W 003°22'0 0.0
2018-May-21 12:30N 47°44' W 003°22'0 0.0
2018-May-21 12:00N 47°44' W 003°22'0 0.0
2018-May-21 11:30N 47°44' W 003°22'0 0.0
2018-May-21 11:00N 47°44' W 003°22'0 0.0
2018-May-21 10:30N 47°44' W 003°22'0 0.0
2018-May-21 10:00N 47°44' W 003°22'0 0.0
2018-May-21 09:30N 47°44' W 003°22'0 0.0
2018-May-21 09:00N 47°44' W 003°22'0 0.0
2018-May-21 08:30N 47°44' W 003°22'0 0.0
2018-May-21 08:00N 47°44' W 003°22'0 0.0
2018-May-21 07:30N 47°44' W 003°22'0 0.0
2018-May-21 07:00N 47°44' W 003°22'0 0.0
2018-May-21 06:30N 47°44' W 003°22'0 0.0
2018-May-21 06:00N 47°44' W 003°22'0 0.0
2018-May-21 05:30N 47°44' W 003°22'0 0.0
2018-May-21 05:00N 47°44' W 003°22'0 0.0
2018-May-21 04:30N 47°44' W 003°22'0 0.0
2018-May-21 04:00N 47°44' W 003°22'0 0.0
2018-May-21 03:30N 47°44' W 003°22'0 0.0
2018-May-21 03:00N 47°44' W 003°22'0 0.0
2018-May-21 02:30N 47°44' W 003°22'0 0.0
2018-May-21 02:00N 47°44' W 003°22'0 0.0
2018-May-21 01:30N 47°44' W 003°22'0 0.0
2018-May-21 01:00N 47°44' W 003°22'0 0.0
2018-May-21 00:30N 47°44' W 003°22'0 0.0
2018-May-21 00:00N 47°44' W 003°22'0 0.0
2018-May-20 23:30N 47°44' W 003°22'0 0.0
2018-May-20 23:00N 47°44' W 003°22'0 0.0
2018-May-20 22:30N 47°44' W 003°22'0 0.0
2018-May-20 22:00N 47°44' W 003°22'0 0.0
2018-May-20 21:30N 47°44' W 003°22'0 0.0
2018-May-20 21:00N 47°44' W 003°22'0 0.0
2018-May-20 20:30N 47°44' W 003°22'0 0.0
2018-May-20 20:00N 47°44' W 003°22'0 0.0
2018-May-20 19:30N 47°44' W 003°22'0 0.0
2018-May-20 19:00N 47°44' W 003°22'0 0.0
2018-May-20 18:30N 47°44' W 003°22'0 0.0
2018-May-20 18:00N 47°44' W 003°22'0 0.0
2018-May-20 17:30N 47°44' W 003°22'0 0.0
2018-May-20 17:00N 47°44' W 003°22'0 0.0
2018-May-20 16:30N 47°44' W 003°22'0 0.1
2018-May-20 16:00N 47°44' W 003°22'4 8.2
2018-May-20 15:30N 47°40' W 003°26'5 9.1
2018-May-20 15:00N 47°39' W 003°32'510.3
2018-May-20 14:30N 47°34' W 003°29'3 5.3
2018-May-20 14:00N 47°32' W 003°27'2 3.8
2018-May-20 13:31N 47°30' W 003°26'1 1.1
2018-May-20 13:01N 47°30' W 003°26'1 1.7
2018-May-20 12:30N 47°29' W 003°27'0 0.4
2018-May-20 12:00N 47°29' W 003°27'0 0.3
2018-May-20 11:30N 47°29' W 003°27'0 0.8
2018-May-20 11:00N 47°29' W 003°27'0 0.5
2018-May-20 10:30N 47°29' W 003°26'0 0.6
2018-May-20 10:00N 47°29' W 003°26'1 1.1
2018-May-20 09:30N 47°28' W 003°26'1 1.1
2018-May-20 09:00N 47°28' W 003°26'2 3.1
2018-May-20 08:30N 47°28' W 003°28'0 0.7
2018-May-20 08:01N 47°28' W 003°28'1 1.6
2018-May-20 07:30N 47°29' W 003°28'0 0.8
2018-May-20 07:00N 47°29' W 003°28'1 2.0
2018-May-20 06:31N 47°30' W 003°28'1 1.3
2018-May-20 06:00N 47°29' W 003°28'0 0.4
2018-May-20 05:30N 47°30' W 003°28'0 0.1
2018-May-20 05:01N 47°30' W 003°28'0 0.2
2018-May-20 04:30N 47°30' W 003°28'0 0.2
2018-May-20 04:00N 47°30' W 003°28'0 0.9
2018-May-20 03:30N 47°30' W 003°28'3 7.0
2018-May-20 03:00N 47°30' W 003°33'0 0.7
2018-May-20 02:30N 47°31' W 003°34'1 2.2
2018-May-20 02:00N 47°32' W 003°33'1 2.2
2018-May-20 01:30N 47°32' W 003°32'1 1.0
2018-May-20 00:58N 47°32' W 003°33'1 2.0
2018-May-20 00:28N 47°32' W 003°34'1 2.0
2018-May-19 23:58N 47°32' W 003°36'1 2.1
2018-May-19 23:30N 47°31' W 003°35'1 2.1
2018-May-19 23:00N 47°30' W 003°34'1 2.5
2018-May-19 22:30N 47°30' W 003°32'1 2.7
2018-May-19 22:00N 47°30' W 003°30'1 2.6
2018-May-19 21:30N 47°30' W 003°29'1 2.9
2018-May-19 21:00N 47°30' W 003°26'2 4.2
2018-May-19 20:30N 47°29' W 003°23'2 4.2
2018-May-19 20:00N 47°29' W 003°20'0 0.9
2018-May-19 19:31N 47°29' W 003°20'2 3.6
2018-May-19 19:01N 47°28' W 003°22'1 2.3
2018-May-19 18:30N 47°29' W 003°21'1 1.6
2018-May-19 18:00N 47°29' W 003°20'0 0.7
2018-May-19 17:30N 47°29' W 003°20'2 4.8
2018-May-19 17:00N 47°28' W 003°23'4 8.9
2018-May-19 16:30N 47°26' W 003°28'0 0.3
2018-May-19 16:01N 47°26' W 003°28'1 2.8
2018-May-19 15:30N 47°27' W 003°27'0 0.6
2018-May-19 15:00N 47°27' W 003°27'1 1.7
2018-May-19 14:30N 47°27' W 003°28'1 1.8
2018-May-19 14:00N 47°28' W 003°29'1 1.2
2018-May-19 13:31N 47°28' W 003°30'1 1.3
2018-May-19 13:00N 47°28' W 003°30'0 0.2
2018-May-19 12:30N 47°28' W 003°30'0 0.2
2018-May-19 12:00N 47°28' W 003°30'0 0.3
2018-May-19 11:30N 47°28' W 003°30'0 0.4
2018-May-19 11:00N 47°28' W 003°29'0 0.4
2018-May-19 10:30N 47°28' W 003°29'1 1.0
2018-May-19 10:00N 47°28' W 003°30'1 1.6
2018-May-19 09:30N 47°29' W 003°29'1 2.9
2018-May-19 09:00N 47°30' W 003°28'2 3.4
2018-May-19 08:30N 47°32' W 003°28'1 2.1
2018-May-19 08:00N 47°31' W 003°29'1 2.2
2018-May-19 07:30N 47°30' W 003°29'1 1.1
2018-May-19 07:00N 47°30' W 003°30'0 1.0
2018-May-19 06:30N 47°30' W 003°31'2 3.1
2018-May-19 06:00N 47°29' W 003°28'5 9.9
2018-May-19 05:30N 47°27' W 003°22'5 9.9
2018-May-19 05:00N 47°24' W 003°15'510.0
2018-May-19 04:30N 47°22' W 003°09'1 1.4
2018-May-19 04:00N 47°21' W 003°09'0 0.0
2018-May-19 03:30N 47°21' W 003°09'0 0.0
2018-May-19 01:26N 47°21' W 003°09'0 0.0
2018-May-19 00:55N 47°21' W 003°09'0 0.0
2018-May-19 00:30N 47°21' W 003°09'0 0.0
2018-May-18 23:58N 47°21' W 003°09'0 0.1
2018-May-18 23:30N 47°21' W 003°09'0 0.0
2018-May-18 22:46N 47°21' W 003°09'0 0.0
2018-May-18 22:30N 47°21' W 003°09'0 0.0
2018-May-18 22:00N 47°21' W 003°09'0 0.0
2018-May-18 21:29N 47°21' W 003°09'0 0.0
2018-May-18 20:46N 47°21' W 003°09'0 0.0
2018-May-18 20:30N 47°21' W 003°09'0 0.0
2018-May-18 20:00N 47°21' W 003°09'0 0.0
2018-May-18 19:30N 47°21' W 003°09'0 0.0
2018-May-18 19:00N 47°21' W 003°09'0 0.0
2018-May-18 18:30N 47°21' W 003°09'0 0.0
2018-May-18 18:00N 47°21' W 003°09'0 0.0
2018-May-18 17:30N 47°21' W 003°09'0 0.0
2018-May-18 17:00N 47°21' W 003°09'0 0.0
2018-May-18 16:30N 47°21' W 003°09'0 0.0
2018-May-18 16:00N 47°21' W 003°09'0 0.0
2018-May-18 15:30N 47°21' W 003°09'0 0.0
2018-May-18 15:00N 47°21' W 003°09'0 0.0
2018-May-18 14:30N 47°21' W 003°09'4 7.2
2018-May-18 14:00N 47°24' W 003°12'4 8.4
2018-May-18 13:30N 47°24' W 003°18'2 4.4
2018-May-18 13:01N 47°22' W 003°18'1 1.0
2018-May-18 12:30N 47°21' W 003°18'2 4.0
2018-May-18 12:00N 47°19' W 003°17'2 4.0
2018-May-18 11:29N 47°17' W 003°16'1 1.5
2018-May-18 11:00N 47°18' W 003°16'1 1.4
2018-May-18 10:30N 47°19' W 003°16'1 1.6
2018-May-18 10:00N 47°20' W 003°17'3 4.7
2018-May-18 09:28N 47°22' W 003°18'3 5.4
2018-May-18 09:00N 47°24' W 003°19'2 4.2
2018-May-18 08:30N 47°26' W 003°21'3 5.9
2018-May-18 08:00N 47°27' W 003°25'3 5.9
2018-May-18 07:30N 47°28' W 003°29'0 1.0
2018-May-18 07:00N 47°28' W 003°28'1 2.0
2018-May-18 06:30N 47°28' W 003°27'0 0.8
2018-May-18 06:00N 47°28' W 003°26'2 4.4
2018-May-18 05:30N 47°27' W 003°24'510.1
2018-May-18 05:00N 47°25' W 003°17'610.5
2018-May-18 04:28N 47°22' W 003°10'1 1.9
2018-May-18 03:58N 47°21' W 003°09'0 0.0
2018-May-18 03:30N 47°21' W 003°09'0 0.0
2018-May-18 03:00N 47°21' W 003°09'0 0.0
2018-May-18 02:29N 47°21' W 003°09'0 0.0
2018-May-18 02:00N 47°21' W 003°09'0 0.0
2018-May-18 01:30N 47°21' W 003°09'0 0.0
2018-May-18 01:00N 47°21' W 003°09'0 0.0
2018-May-18 00:30N 47°21' W 003°09'0 0.0
2018-May-18 00:00N 47°21' W 003°09'0 0.0
2018-May-17 23:27N 47°21' W 003°09'0 0.1
2018-May-17 23:00N 47°21' W 003°09'0 0.1
2018-May-17 22:30N 47°21' W 003°09'0 0.0
2018-May-17 22:00N 47°21' W 003°09'0 0.0
2018-May-17 21:30N 47°21' W 003°09'0 0.0
2018-May-17 21:00N 47°21' W 003°09'0 0.0
2018-May-17 20:30N 47°21' W 003°09'0 0.0
2018-May-17 20:00N 47°21' W 003°09'0 0.0
2018-May-17 19:30N 47°21' W 003°09'0 0.0
2018-May-17 19:00N 47°21' W 003°09'0 0.0
2018-May-17 18:30N 47°21' W 003°09'0 0.3
2018-May-17 18:01N 47°22' W 003°09'5 9.2
2018-May-17 17:30N 47°24' W 003°14'510.5
2018-May-17 17:00N 47°26' W 003°22'4 8.7
2018-May-17 16:30N 47°28' W 003°28'0 0.6
2018-May-17 16:00N 47°28' W 003°27'2 4.3
2018-May-17 15:30N 47°30' W 003°27'0 0.7
2018-May-17 15:00N 47°30' W 003°26'1 1.8
2018-May-17 14:31N 47°31' W 003°26'1 1.2
2018-May-17 14:01N 47°31' W 003°26'0 0.7
2018-May-17 13:30N 47°31' W 003°27'1 1.8
2018-May-17 13:00N 47°32' W 003°27'2 3.5
2018-May-17 12:30N 47°31' W 003°29'0 0.7
2018-May-17 12:00N 47°31' W 003°30'0 0.3
2018-May-17 11:30N 47°31' W 003°30'0 0.4
2018-May-17 11:00N 47°31' W 003°30'1 1.9
2018-May-17 10:30N 47°31' W 003°29'0 0.9
2018-May-17 10:00N 47°30' W 003°30'1 2.4
2018-May-17 09:30N 47°31' W 003°28'0 1.0
2018-May-17 09:00N 47°30' W 003°29'1 1.3
2018-May-17 08:30N 47°31' W 003°28'0 0.2
2018-May-17 08:00N 47°31' W 003°28'1 1.1
2018-May-17 07:30N 47°31' W 003°29'1 2.2
2018-May-17 07:00N 47°31' W 003°27'0 0.5
2018-May-17 06:30N 47°31' W 003°28'0 1.0
2018-May-17 06:00N 47°31' W 003°27'1 2.1
2018-May-17 05:30N 47°32' W 003°29'1 2.8
2018-May-17 05:00N 47°30' W 003°29'1 1.5
2018-May-17 04:30N 47°31' W 003°29'0 0.5
2018-May-17 04:00N 47°31' W 003°28'1 1.8
2018-May-17 03:30N 47°31' W 003°30'1 2.3
2018-May-17 03:00N 47°31' W 003°31'1 2.5
2018-May-17 02:30N 47°31' W 003°33'1 1.4
2018-May-17 02:00N 47°31' W 003°34'1 2.6
2018-May-17 01:30N 47°31' W 003°32'2 3.2
2018-May-17 01:00N 47°31' W 003°30'1 2.2
2018-May-17 00:30N 47°31' W 003°32'1 2.5
2018-May-17 00:00N 47°31' W 003°33'0 0.9
2018-May-16 23:30N 47°31' W 003°34'2 3.6
2018-May-16 23:00N 47°31' W 003°32'2 3.6
2018-May-16 22:30N 47°31' W 003°29'1 2.8
2018-May-16 22:00N 47°31' W 003°31'3 5.2
2018-May-16 21:30N 47°32' W 003°35'33 9.3
2018-May-16 17:58N 47°42' W 004°21'2110.7
2018-May-16 16:02N 47°58' W 004°41'110.5
2018-May-16 15:58N 47°58' W 004°41'510.3
2018-May-16 15:30N 48°02' W 004°46'4 8.2
2018-May-16 15:00N 48°06' W 004°46'5 9.9
2018-May-16 14:30N 48°11' W 004°46'5 9.8
2018-May-16 14:00N 48°16' W 004°45'4 8.9
2018-May-16 13:30N 48°18' W 004°39'4 8.2
2018-May-16 13:00N 48°20' W 004°34'4 7.1
2018-May-16 12:30N 48°22' W 004°29'1 1.8
2018-May-16 12:00N 48°23' W 004°29'0 0.0
2018-May-16 11:30N 48°23' W 004°29'0 0.0
2018-May-16 11:00N 48°23' W 004°29'0 0.0
2018-May-16 10:30N 48°23' W 004°29'0 0.0
2018-May-16 10:00N 48°23' W 004°29'0 0.0
2018-May-16 09:30N 48°23' W 004°29'0 0.0
2018-May-16 09:00N 48°23' W 004°29'0 0.1
2018-May-16 08:30N 48°23' W 004°29'0 0.0
2018-May-16 08:00N 48°23' W 004°29'0 0.2
2018-May-16 07:30N 48°23' W 004°29'0 0.0
2018-May-16 07:00N 48°23' W 004°29'0 0.0
2018-May-16 06:30N 48°23' W 004°29'0 0.0
2018-May-16 06:00N 48°23' W 004°29'0 0.0
2018-May-16 05:30N 48°23' W 004°29'0 0.0
2018-May-16 05:00N 48°23' W 004°29'0 0.0
2018-May-16 04:30N 48°23' W 004°29'0 0.0
2018-May-16 04:00N 48°23' W 004°29'0 0.0
2018-May-16 03:30N 48°23' W 004°29'0 0.0
2018-May-16 03:00N 48°23' W 004°29'0 0.0
2018-May-16 02:30N 48°23' W 004°29'0 0.0
2018-May-16 02:00N 48°23' W 004°29'0 0.0
2018-May-16 01:30N 48°23' W 004°29'0 0.0
2018-May-16 01:00N 48°23' W 004°29'0 0.0
2018-May-16 00:30N 48°23' W 004°29'0 0.0
2018-May-16 00:00N 48°23' W 004°29'0 0.0
2018-May-15 23:30N 48°23' W 004°29'0 0.0
2018-May-15 23:00N 48°23' W 004°29'0 0.0
2018-May-15 22:30N 48°23' W 004°29'0 0.0
2018-May-15 22:00N 48°23' W 004°29'0 0.0
2018-May-15 21:30N 48°23' W 004°29'0 0.0
2018-May-15 21:00N 48°23' W 004°29'0 0.0
2018-May-15 20:30N 48°23' W 004°29'0 0.0
2018-May-15 20:00N 48°23' W 004°29'0 0.0
2018-May-15 19:30N 48°23' W 004°29'0 0.0
2018-May-15 19:00N 48°23' W 004°29'0 0.0
2018-May-15 18:30N 48°23' W 004°29'0 0.0
2018-May-15 18:00N 48°23' W 004°29'0 0.0
2018-May-15 17:30N 48°23' W 004°29'0 0.0
2018-May-15 17:00N 48°23' W 004°29'0 0.0
2018-May-15 16:30N 48°23' W 004°29'0 0.0
2018-May-15 16:00N 48°23' W 004°29'0 0.0
2018-May-15 15:30N 48°23' W 004°29'0 0.0
2018-May-15 15:00N 48°23' W 004°29'0 0.0
2018-May-15 14:30N 48°23' W 004°29'0 0.0
2018-May-15 14:00N 48°23' W 004°29'0 0.0
2018-May-15 13:30N 48°23' W 004°29'0 0.0
2018-May-15 13:00N 48°23' W 004°29'0 0.0
2018-May-15 12:30N 48°23' W 004°29'0 0.0
2018-May-15 12:00N 48°23' W 004°29'0 0.0
2018-May-15 11:30N 48°23' W 004°29'0 0.0
2018-May-15 11:00N 48°23' W 004°29'0 0.0
2018-May-15 10:30N 48°23' W 004°29'0 0.0
2018-May-15 10:00N 48°23' W 004°29'0 0.0
2018-May-15 09:30N 48°23' W 004°29'0 0.0
2018-May-15 09:00N 48°23' W 004°29'0 0.0
2018-May-15 08:30N 48°23' W 004°29'0 0.0
2018-May-15 08:00N 48°23' W 004°29'0 0.0
2018-May-15 07:30N 48°23' W 004°29'0 0.0
2018-May-15 07:00N 48°23' W 004°29'0 0.0
2018-May-15 06:30N 48°23' W 004°29'0 0.0
2018-May-15 06:00N 48°23' W 004°29'0 0.0
2018-May-15 05:30N 48°23' W 004°29'0 0.0
2018-May-15 05:00N 48°23' W 004°29'0 0.0
2018-May-15 04:30N 48°23' W 004°29'0 0.0
2018-May-15 04:00N 48°23' W 004°29'0 0.0
2018-May-15 03:30N 48°23' W 004°29'0 0.0
2018-May-15 03:00N 48°23' W 004°29'0 0.0
2018-May-15 02:30N 48°23' W 004°29'0 0.0
2018-May-15 02:00N 48°23' W 004°29'0 0.0
2018-May-15 01:30N 48°23' W 004°29'0 0.0
2018-May-15 01:00N 48°23' W 004°29'0 0.0
2018-May-15 00:30N 48°23' W 004°29'0 0.0
2018-May-15 00:00N 48°23' W 004°29'0 0.0
2018-May-14 23:30N 48°23' W 004°29'0 0.0
2018-May-14 23:00N 48°23' W 004°29'0 0.0
2018-May-14 22:30N 48°23' W 004°29'0 0.0
2018-May-14 22:00N 48°23' W 004°29'0 0.0
2018-May-14 21:30N 48°23' W 004°29'0 0.0
2018-May-14 21:00N 48°23' W 004°29'0 0.0
2018-May-14 20:30N 48°23' W 004°29'0 0.0
2018-May-14 20:00N 48°23' W 004°29'0 0.0
2018-May-14 19:30N 48°23' W 004°29'0 0.0
2018-May-14 19:00N 48°23' W 004°29'0 0.0
2018-May-14 18:30N 48°23' W 004°29'0 0.0
2018-May-14 18:00N 48°23' W 004°29'  

Dump ship's entire track history